Time;durP1;ratioP1;P1;durP2;ratioP2;P2;SDS_P1;SDS_P2;PMS_P1;PMS_P2;Temp;Humidity;BMP_temperature;BMP_pressure;BME280_temperature;BME280_humidity;BME280_pressure;Samples;Min_cycle;Max_cycle;Signal;HPM_P1;HPM_P2
2022/06/17 00:00:15;;;;;;;9.48;5.43;;;;;;;17.36;100.00;97205.75;4970154;28;20050;-68
2022/06/17 00:02:41;;;;;;;14.52;5.70;;;;;;;16.89;100.00;97203.03;4981683;28;20117;-69
2022/06/17 00:05:07;;;;;;;9.95;5.63;;;;;;;16.95;100.00;97212.50;4974648;28;20062;-70
2022/06/17 00:07:32;;;;;;;8.75;6.13;;;;;;;16.87;100.00;97204.59;4970670;28;20043;-70
2022/06/17 00:09:58;;;;;;;9.38;5.68;;;;;;;16.79;100.00;97206.56;4976182;28;20369;-69
2022/06/17 00:12:23;;;;;;;9.13;5.38;;;;;;;16.81;100.00;97207.72;4968936;28;20939;-70
2022/06/17 00:17:33;;;;;;;12.55;5.28;;;;;;;17.11;100.00;97217.63;4973422;28;20449;-70
2022/06/17 00:19:58;;;;;;;7.78;5.07;;;;;;;17.13;100.00;97218.03;4975691;28;20129;-70
2022/06/17 00:22:25;;;;;;;10.65;5.43;;;;;;;17.20;100.00;97212.47;4958337;28;20442;-68
2022/06/17 00:24:52;;;;;;;13.52;5.38;;;;;;;17.17;100.00;97210.50;4963526;28;20124;-70
2022/06/17 00:27:18;;;;;;;9.80;5.30;;;;;;;17.06;100.00;97209.72;4971769;28;20057;-71
2022/06/17 00:29:44;;;;;;;13.52;5.43;;;;;;;16.85;100.00;97218.84;4976094;28;20408;-70
2022/06/17 00:32:09;;;;;;;8.05;5.32;;;;;;;16.49;100.00;97216.00;4973759;28;20043;-70
2022/06/17 00:34:34;;;;;;;11.43;5.65;;;;;;;16.33;100.00;97208.13;4976170;28;20515;-70
2022/06/17 00:37:02;;;;;;;10.85;6.53;;;;;;;16.28;100.00;97213.22;4974749;28;20056;-70
2022/06/17 00:39:32;;;;;;;10.35;5.72;;;;;;;16.24;100.00;97224.25;4971451;28;20050;-69
2022/06/17 00:42:07;;;;;;;10.93;5.38;;;;;;;16.25;100.00;97206.50;4975371;28;20476;-68
2022/06/17 00:44:59;;;;;;;10.45;5.95;;;;;;;16.23;100.00;97209.66;4973645;28;20138;-68
2022/06/17 00:47:47;;;;;;;13.93;6.38;;;;;;;16.25;100.00;97215.59;4975548;28;20046;-69
2022/06/17 00:50:23;;;;;;;9.55;5.28;;;;;;;16.28;100.00;97214.03;4970810;28;20050;-69
2022/06/17 00:53:00;;;;;;;12.90;5.53;;;;;;;16.21;100.00;97217.56;4973932;28;20042;-69
2022/06/17 00:55:35;;;;;;;10.02;5.78;;;;;;;16.35;100.00;97221.53;4967744;28;20053;-69
2022/06/17 00:58:11;;;;;;;10.43;5.32;;;;;;;16.39;100.00;97225.09;4971550;28;20042;-69
2022/06/17 01:00:37;;;;;;;6.00;4.82;;;;;;;16.51;100.00;97219.19;4971483;28;20049;-69
2022/06/17 01:03:08;;;;;;;10.65;5.68;;;;;;;16.60;100.00;97221.56;4983722;28;20038;-67
2022/06/17 01:05:41;;;;;;;9.52;4.90;;;;;;;16.64;100.00;97227.91;4978749;28;20054;-68
2022/06/17 01:11:08;;;;;;;8.93;5.10;;;;;;;16.27;100.00;97215.19;4970703;28;20129;-68
2022/06/17 01:13:36;;;;;;;14.02;4.97;;;;;;;16.30;100.00;97214.41;4974479;28;20094;-69
2022/06/17 01:16:03;;;;;;;10.82;4.65;;;;;;;16.02;100.00;97226.97;4974170;28;20065;-68
2022/06/17 01:18:31;;;;;;;8.52;4.90;;;;;;;16.35;100.00;97219.56;4972693;28;20101;-70
2022/06/17 01:21:01;;;;;;;7.00;4.63;;;;;;;16.33;97.32;97227.47;4971681;28;20042;-68
2022/06/17 01:23:28;;;;;;;11.55;5.00;;;;;;;16.39;96.89;97227.88;4970016;28;20097;-68
2022/06/17 01:25:54;;;;;;;9.27;4.40;;;;;;;16.40;97.01;97221.13;4973873;28;20128;-68
2022/06/17 01:28:20;;;;;;;7.97;4.40;;;;;;;16.43;96.78;97231.41;4967973;28;20997;-69
2022/06/17 01:30:58;;;;;;;11.38;5.20;;;;;;;16.40;97.68;97227.47;4979349;28;20042;-69
2022/06/17 01:33:29;;;;;;;7.18;4.60;;;;;;;16.45;96.52;97215.22;4968610;28;20609;-69
2022/06/17 01:36:01;;;;;;;7.70;4.03;;;;;;;16.58;93.02;97213.69;4978983;28;20053;-69
2022/06/17 01:38:29;;;;;;;6.25;3.72;;;;;;;16.66;92.61;97221.97;4971970;28;20058;-69
2022/06/17 01:40:56;;;;;;;9.50;4.50;;;;;;;16.78;89.87;97224.34;4971494;28;20089;-70
2022/06/17 01:43:28;;;;;;;9.85;4.53;;;;;;;16.66;90.43;97220.00;4965910;28;20512;-69
2022/06/17 01:45:58;;;;;;;6.28;4.03;;;;;;;16.51;91.80;97229.44;4975698;28;20046;-69
2022/06/17 01:48:29;;;;;;;8.77;4.20;;;;;;;16.58;92.91;97226.69;4973013;28;20409;-70
2022/06/17 01:50:58;;;;;;;7.38;4.38;;;;;;;16.68;90.90;97228.69;4971838;28;20109;-68
2022/06/17 01:53:29;;;;;;;5.88;4.00;;;;;;;16.65;93.67;97236.97;4973690;28;20627;-70
2022/06/17 01:56:03;;;;;;;7.18;4.28;;;;;;;16.62;95.90;97230.28;4973539;28;20039;-70
2022/06/17 01:58:45;;;;;;;8.15;4.45;;;;;;;16.54;97.54;97232.22;4977116;28;20057;-70
2022/06/17 02:01:11;;;;;;;12.13;5.47;;;;;;;16.27;100.00;97225.47;4971222;28;20070;-69
2022/06/17 02:03:48;;;;;;;7.05;4.70;;;;;;;15.90;100.00;97218.25;4973343;28;20080;-70
2022/06/17 02:06:32;;;;;;;10.07;5.90;;;;;;;15.89;100.00;97228.50;4970358;28;20049;-69
2022/06/17 02:08:58;;;;;;;14.27;5.88;;;;;;;15.73;100.00;97230.78;4977385;28;20137;-70
2022/06/17 02:11:23;;;;;;;26.50;5.63;;;;;;;15.68;100.00;97220.88;4969690;28;20616;-70
2022/06/17 02:13:49;;;;;;;11.07;5.05;;;;;;;15.55;100.00;97214.13;4979008;28;20157;-68
2022/06/17 02:16:16;;;;;;;9.55;5.70;;;;;;;15.91;100.00;97228.91;4975848;28;20050;-68
2022/06/17 02:18:44;;;;;;;8.90;4.80;;;;;;;15.99;100.00;97222.25;4974363;28;20043;-69
2022/06/17 02:21:16;;;;;;;8.15;4.72;;;;;;;15.97;97.90;97212.75;4979870;28;20057;-69
2022/06/17 02:23:42;;;;;;;6.40;5.07;;;;;;;15.79;100.00;97221.78;4979351;28;20145;-68
2022/06/17 02:26:09;;;;;;;11.25;5.35;;;;;;;15.73;100.00;97225.25;4970255;28;20062;-69
2022/06/17 02:28:35;;;;;;;7.38;4.72;;;;;;;15.98;95.51;97214.34;4974183;28;20118;-68
2022/06/17 02:31:02;;;;;;;8.40;4.53;;;;;;;15.89;98.02;97219.44;4981745;28;20059;-69
2022/06/17 02:33:29;;;;;;;7.63;4.32;;;;;;;15.67;97.09;97213.78;4970038;28;20560;-69
2022/06/17 02:36:01;;;;;;;6.78;4.47;;;;;;;15.65;99.23;97211.41;4973206;28;20047;-70
2022/06/17 02:38:30;;;;;;;7.90;4.20;;;;;;;15.57;99.00;97220.06;4967827;28;20039;-69
2022/06/17 02:40:59;;;;;;;8.95;5.13;;;;;;;14.83;100.00;97222.72;4985236;28;20042;-68
2022/06/17 02:43:32;;;;;;;9.50;5.20;;;;;;;14.75;100.00;97225.81;4988065;28;20041;-69
2022/06/17 02:46:06;;;;;;;9.68;5.45;;;;;;;14.33;100.00;97231.34;4989943;28;20496;-68
2022/06/17 02:48:40;;;;;;;11.65;5.45;;;;;;;14.42;100.00;97225.50;4977229;28;20043;-68
2022/06/17 02:51:05;;;;;;;9.27;5.30;;;;;;;14.62;100.00;97239.91;4965559;28;20129;-68
2022/06/17 02:53:36;;;;;;;6.20;4.97;;;;;;;14.85;100.00;97245.19;4971994;28;20169;-68
2022/06/17 02:56:25;;;;;;;12.50;5.18;;;;;;;15.06;100.00;97239.06;4977018;28;20048;-68
2022/06/17 02:59:15;;;;;;;12.60;4.90;;;;;;;15.09;100.00;97251.31;4977209;28;20054;-68
2022/06/17 03:01:41;;;;;;;10.93;5.53;;;;;;;14.25;100.00;97257.22;4980246;28;20129;-68
2022/06/17 03:04:20;;;;;;;12.55;6.05;;;;;;;14.18;100.00;97264.63;4982095;28;20042;-69
2022/06/17 03:06:49;;;;;;;10.63;6.47;;;;;;;14.21;100.00;97258.34;4974209;28;20038;-69
2022/06/17 03:09:23;;;;;;;13.98;5.85;;;;;;;14.25;100.00;97254.47;4975687;28;20058;-69
2022/06/17 03:11:55;;;;;;;8.55;5.45;;;;;;;14.49;100.00;97268.88;4976605;28;20034;-69
2022/06/17 03:14:24;;;;;;;10.18;5.32;;;;;;;14.61;100.00;97267.84;4974282;28;21809;-69
2022/06/17 03:16:57;;;;;;;10.15;6.10;;;;;;;14.34;100.00;97270.69;4979321;28;20050;-71
2022/06/17 03:19:23;;;;;;;9.95;5.10;;;;;;;14.37;100.00;97269.94;4965676;28;20173;-71
2022/06/17 03:21:49;;;;;;;10.65;5.32;;;;;;;14.42;100.00;97266.03;4973172;28;20042;-70
2022/06/17 03:24:43;;;;;;;9.60;5.35;;;;;;;14.50;100.00;97265.75;4977649;28;20057;-68
2022/06/17 03:27:22;;;;;;;8.77;5.60;;;;;;;14.70;100.00;97260.84;4974066;28;20042;-68
2022/06/17 03:29:50;;;;;;;16.25;10.20;;;;;;;14.46;100.00;97272.41;4978908;28;20112;-69
2022/06/17 03:32:38;;;;;;;9.00;5.50;;;;;;;14.64;100.00;97258.78;4977560;28;20065;-68
2022/06/17 03:35:05;;;;;;;11.57;5.22;;;;;;;14.37;100.00;97269.94;4973700;28;20057;-66
2022/06/17 03:37:38;;;;;;;13.30;5.68;;;;;;;14.22;100.00;97271.72;4975284;28;20042;-68
2022/06/17 03:40:20;;;;;;;7.47;5.32;;;;;;;14.40;100.00;97269.16;4975021;28;20034;-68
2022/06/17 03:42:59;;;;;;;11.95;4.75;;;;;;;14.61;100.00;97260.34;4985273;28;20043;-70
2022/06/17 03:45:31;;;;;;;11.47;5.23;;;;;;;14.82;100.00;97269.97;4985583;28;20102;-68
2022/06/17 03:48:08;;;;;;;11.10;5.22;;;;;;;14.95;100.00;97267.75;4991177;28;20097;-68
2022/06/17 03:50:37;;;;;;;8.05;5.25;;;;;;;15.12;100.00;97271.81;4976848;28;20039;-69
2022/06/17 03:53:06;;;;;;;11.95;5.30;;;;;;;15.06;100.00;97274.91;4974108;28;20492;-67
2022/06/17 03:55:32;;;;;;;;;;;;;;;15.27;100.00;97273.50;4978221;28;20050;-68
2022/06/17 03:58:01;;;;;;;8.82;4.60;;;;;;;15.53;100.00;97266.97;4976400;28;19967;-69
2022/06/17 04:00:31;;;;;;;12.02;4.97;;;;;;;15.76;100.00;97269.50;4973574;28;20101;-68
2022/06/17 04:03:01;;;;;;;7.90;4.65;;;;;;;15.97;100.00;97273.53;4973832;28;20050;-68
2022/06/17 04:05:28;;;;;;;7.97;4.55;;;;;;;15.97;100.00;97281.81;4970033;28;20049;-69
2022/06/17 04:07:54;;;;;;;6.50;4.55;;;;;;;16.20;100.00;97282.28;4979393;28;20069;-68
2022/06/17 04:10:24;;;;;;;7.43;4.70;;;;;;;16.48;100.00;97289.09;4984047;28;20534;-65
2022/06/17 04:12:52;;;;;;;7.85;4.65;;;;;;;16.44;100.00;97285.53;4978588;28;20050;-65
2022/06/17 04:15:32;;;;;;;6.40;4.47;;;;;;;16.83;100.00;97284.84;4974501;28;20050;-69
2022/06/17 04:17:58;;;;;;;10.18;4.50;;;;;;;17.18;100.00;97286.03;4981113;28;20069;-68
2022/06/17 04:20:39;;;;;;;7.95;4.75;;;;;;;17.44;97.79;97284.81;4961810;28;20606;-68
2022/06/17 04:23:12;;;;;;;6.78;4.30;;;;;;;17.64;96.26;97287.16;4976503;28;20049;-66
2022/06/17 04:25:52;;;;;;;8.23;4.38;;;;;;;17.76;93.93;97281.97;4979123;28;20054;-69
2022/06/17 04:28:23;;;;;;;8.73;4.25;;;;;;;18.01;92.86;97291.47;4975927;28;20128;-67
2022/06/17 04:30:52;;;;;;;4.97;4.30;;;;;;;18.28;89.98;97286.97;4981558;28;20419;-68
2022/06/17 04:33:50;;;;;;;;;;;;;;;18.56;88.72;97287.22;4975613;28;20046;-67
2022/06/17 04:36:23;;;;;;;11.75;4.57;;;;;;;18.99;86.36;97287.75;4933076;28;19918;-69
2022/06/17 04:38:57;;;;;;;16.50;4.78;;;;;;;19.32;84.39;97295.81;4960912;28;20387;-68
2022/06/17 04:41:27;;;;;;;8.30;4.25;;;;;;;19.12;84.40;97296.38;4970672;28;20408;-67
2022/06/17 04:43:56;;;;;;;6.40;4.38;;;;;;;18.36;89.25;97298.81;4981565;28;20125;-66
2022/06/17 04:46:43;;;;;;;9.55;4.82;;;;;;;18.13;89.01;97308.44;4970451;28;20360;-67
2022/06/17 04:49:31;;;;;;;7.78;4.03;;;;;;;19.46;84.23;97302.06;4974501;28;20042;-67
2022/06/17 04:52:04;;;;;;;5.70;3.92;;;;;;;20.54;77.03;97298.03;4978981;28;20058;-67
2022/06/17 04:54:31;;;;;;;6.43;3.38;;;;;;;21.25;70.99;97301.00;4980236;28;20042;-67
2022/06/17 04:56:58;;;;;;;5.70;3.47;;;;;;;21.90;67.87;97302.69;4980783;28;20137;-66
2022/06/17 04:59:36;;;;;;;4.57;3.30;;;;;;;22.79;63.41;97313.22;4982700;28;20054;-67
2022/06/17 05:02:14;;;;;;;11.25;3.78;;;;;;;23.41;60.00;97305.78;4971850;28;20046;-65
2022/06/17 05:04:40;;;;;;;7.38;3.30;;;;;;;23.97;59.15;97315.19;4970228;28;20099;-68
2022/06/17 05:07:06;;;;;;;7.03;3.38;;;;;;;24.47;57.64;97327.75;4981297;28;20046;-66
2022/06/17 05:09:54;;;;;;;7.75;3.63;;;;;;;25.05;56.46;97337.25;5002420;28;20045;-66
2022/06/17 05:12:28;;;;;;;6.70;3.08;;;;;;;25.65;51.01;97340.13;4971755;28;20518;-68
2022/06/17 05:15:01;;;;;;;4.40;2.67;;;;;;;26.13;48.89;97340.91;4970130;28;20045;-69
2022/06/17 05:17:27;;;;;;;3.38;2.65;;;;;;;27.09;45.98;97332.13;4976485;28;20046;-66
2022/06/17 05:19:53;;;;;;;4.97;2.80;;;;;;;27.81;43.26;97334.84;4978967;28;20407;-66
2022/06/17 05:22:31;;;;;;;6.63;3.00;;;;;;;28.08;42.09;97345.38;4983724;28;20068;-66
2022/06/17 05:24:57;;;;;;;4.68;3.53;;;;;;;27.99;42.14;97346.16;4978208;28;20045;-66
2022/06/17 05:27:23;;;;;;;5.40;3.58;;;;;;;27.65;43.46;97339.50;4972106;28;20785;-66
2022/06/17 05:29:48;;;;;;;8.73;3.22;;;;;;;28.10;41.57;97344.91;4988105;28;20069;-67
2022/06/17 05:32:18;;;;;;;11.60;3.63;;;;;;;29.11;38.97;97350.38;4971836;28;20054;-66
2022/06/17 05:34:43;;;;;;;5.88;2.80;;;;;;;29.90;38.00;97342.94;4979728;28;20057;-67
2022/06/17 05:37:09;;;;;;;8.27;3.58;;;;;;;30.74;36.40;97351.47;4974538;28;20484;-65
2022/06/17 05:39:34;;;;;;;7.75;2.88;;;;;;;31.66;34.16;97352.44;4984181;28;20454;-67
2022/06/17 05:42:00;;;;;;;5.00;2.88;;;;;;;31.11;34.58;97359.59;4991783;28;20136;-66
2022/06/17 05:44:25;;;;;;;6.50;2.72;;;;;;;31.23;34.14;97362.09;4994904;28;20141;-67
2022/06/17 05:46:51;;;;;;;5.97;2.78;;;;;;;31.13;33.63;97363.47;4988336;28;20096;-67
2022/06/17 05:49:16;;;;;;;6.15;2.33;;;;;;;32.47;32.19;97363.00;4988106;28;20050;-67
2022/06/17 05:51:42;;;;;;;3.58;2.15;;;;;;;33.21;30.45;97377.94;4995360;28;20109;-66
2022/06/17 05:54:08;;;;;;;7.00;2.30;;;;;;;30.79;33.49;97367.75;4987054;28;20563;-66
2022/06/17 05:56:34;;;;;;;8.05;2.53;;;;;;;30.70;37.20;97368.63;4992993;28;20133;-66
2022/06/17 05:58:59;;;;;;;7.10;2.50;;;;;;;29.53;37.55;97379.81;4991822;28;20132;-66
2022/06/17 06:01:25;;;;;;;8.05;2.80;;;;;;;29.12;40.04;97371.69;4986876;28;20510;-66
2022/06/17 06:03:50;;;;;;;6.43;2.28;;;;;;;29.04;38.40;97376.09;4994028;28;20120;-66
2022/06/17 06:06:16;;;;;;;4.20;2.40;;;;;;;27.85;40.67;97378.47;4987526;28;20034;-67
2022/06/17 06:08:41;;;;;;;8.15;2.70;;;;;;;29.15;41.28;97369.97;4993969;28;20046;-66
2022/06/17 06:11:07;;;;;;;5.20;2.40;;;;;;;31.74;34.47;97376.25;4987327;28;20045;-65
2022/06/17 06:13:32;;;;;;;5.40;2.03;;;;;;;32.52;32.69;97387.00;4993711;28;20060;-66
2022/06/17 06:16:00;;;;;;;6.15;2.13;;;;;;;32.29;32.69;97383.19;4993201;28;20049;-66
2022/06/17 06:18:29;;;;;;;5.72;2.38;;;;;;;31.70;32.72;97381.34;4978648;28;20413;-65
2022/06/17 06:20:55;;;;;;;5.40;2.28;;;;;;;32.14;32.19;97386.88;4992196;28;20046;-66
2022/06/17 06:23:20;;;;;;;5.05;2.10;;;;;;;31.12;35.19;97398.72;4997568;28;20061;-66
2022/06/17 06:25:46;;;;;;;4.07;1.92;;;;;;;30.81;33.48;97399.16;5003010;28;20042;-66
2022/06/17 06:28:16;;;;;;;3.10;2.10;;;;;;;28.40;39.94;97407.97;4979487;28;20050;-63
2022/06/17 06:30:42;;;;;;;3.42;1.90;;;;;;;28.11;42.42;97403.56;4984081;28;20034;-64
2022/06/17 06:33:09;;;;;;;4.57;1.85;;;;;;;30.59;35.36;97397.47;4979093;28;20049;-66
2022/06/17 06:35:38;;;;;;;5.22;2.30;;;;;;;31.37;34.94;97405.03;4983728;28;20046;-66
2022/06/17 06:38:05;;;;;;;9.02;2.67;;;;;;;27.99;37.83;97401.69;4980557;28;20061;-68
2022/06/17 06:40:31;;;;;;;14.00;3.13;;;;;;;29.60;35.85;97406.94;4988817;28;20042;-67
2022/06/17 06:42:57;;;;;;;5.13;2.50;;;;;;;27.98;37.99;97417.78;4995286;28;20092;-66
2022/06/17 06:45:24;;;;;;;7.60;2.35;;;;;;;28.27;39.31;97412.97;4999008;28;20760;-65
2022/06/17 06:47:51;;;;;;;6.75;2.10;;;;;;;27.21;40.19;97412.03;5001103;28;20058;-66
2022/06/17 06:50:20;;;;;;;9.75;2.20;;;;;;;26.99;40.61;97418.47;4980856;28;20050;-65
2022/06/17 06:52:46;;;;;;;4.40;2.00;;;;;;;24.53;43.41;97426.81;4989634;28;20057;-66
2022/06/17 06:55:12;;;;;;;6.18;2.47;;;;;;;25.42;41.32;97425.41;4980175;28;20042;-66
2022/06/17 06:57:43;;;;;;;4.25;2.55;;;;;;;26.25;38.83;97425.53;4983681;28;20042;-65
2022/06/17 07:00:12;;;;;;;4.47;1.88;;;;;;;25.82;40.43;97424.16;4981629;28;20138;-65
2022/06/17 07:02:38;;;;;;;6.50;1.67;;;;;;;27.93;36.70;97431.69;4966670;28;20046;-65
2022/06/17 07:05:04;;;;;;;5.80;1.90;;;;;;;26.83;38.23;97427.09;4980240;28;20045;-64
2022/06/17 07:07:29;;;;;;;5.93;2.20;;;;;;;26.32;38.94;97439.31;4980361;28;20046;-66
2022/06/17 07:09:55;;;;;;;3.85;1.95;;;;;;;25.44;41.73;97441.78;4983249;28;20054;-67
2022/06/17 07:12:20;;;;;;;4.38;2.05;;;;;;;28.30;35.16;97440.19;4958727;28;20050;-66
2022/06/17 07:14:45;;;;;;;5.30;1.70;;;;;;;29.97;33.04;97435.78;4966187;28;20047;-66
2022/06/17 07:17:11;;;;;;;4.38;2.03;;;;;;;30.30;31.18;97443.38;4967824;28;20431;-64
2022/06/17 07:19:36;;;;;;;4.10;2.00;;;;;;;30.53;31.37;97453.13;4982024;28;20046;-64
2022/06/17 07:22:02;;;;;;;4.97;1.83;;;;;;;28.44;34.40;97448.03;4989327;28;20077;-65
2022/06/17 07:24:28;;;;;;;4.30;1.65;;;;;;;30.84;29.87;97438.56;4981274;28;20046;-64
2022/06/17 07:26:53;;;;;;;7.75;2.25;;;;;;;28.79;33.71;97448.53;4980751;28;20046;-64
2022/06/17 07:29:18;;;;;;;3.42;1.83;;;;;;;27.89;34.71;97434.63;4978132;28;20097;-65
2022/06/17 07:31:44;;;;;;;6.20;2.10;;;;;;;29.64;32.75;97441.41;4983802;28;20062;-64
2022/06/17 07:34:09;;;;;;;8.13;2.97;;;;;;;28.78;32.57;97440.53;4978549;28;20046;-66
2022/06/17 07:42:04;;;;;;;4.10;1.95;;;;;;;31.35;28.60;97431.00;4985266;28;20121;-63
2022/06/17 07:44:29;;;;;;;6.90;2.10;;;;;;;29.07;33.00;97437.19;5001609;28;20537;-65
2022/06/17 07:46:55;;;;;;;4.70;1.75;;;;;;;31.20;30.08;97430.22;5012544;28;20144;-65
2022/06/17 07:49:20;;;;;;;4.53;1.80;;;;;;;31.48;29.32;97430.72;4992539;28;20066;-66
2022/06/17 07:51:46;;;;;;;2.40;1.58;;;;;;;31.49;29.21;97428.66;4995321;28;20042;-64
2022/06/17 07:54:12;;;;;;;4.38;1.60;;;;;;;32.00;28.41;97427.34;4978498;28;20034;-65
2022/06/17 07:56:38;;;;;;;5.07;1.92;;;;;;;33.25;27.65;97438.06;4981493;28;20042;-65
2022/06/17 07:59:04;;;;;;;3.83;1.52;;;;;;;30.51;30.93;97433.06;4979223;28;20542;-66
2022/06/17 08:01:29;;;;;;;3.78;1.45;;;;;;;29.69;32.79;97435.09;4982074;28;20045;-65
2022/06/17 08:03:54;;;;;;;4.68;1.70;;;;;;;30.15;31.99;97426.41;4983030;28;20068;-65
2022/06/17 08:06:20;;;;;;;4.53;2.10;;;;;;;27.07;37.09;97424.59;4977137;28;20132;-65
2022/06/17 08:08:46;;;;;;;5.38;1.98;;;;;;;26.33;38.44;97424.81;4980391;28;20431;-65
2022/06/17 08:11:12;;;;;;;5.65;2.38;;;;;;;25.03;41.51;97421.78;4978891;28;20423;-64
2022/06/17 08:13:38;;;;;;;3.20;2.30;;;;;;;26.28;40.44;97413.41;4982457;28;20085;-64
2022/06/17 08:16:06;;;;;;;3.80;1.98;;;;;;;28.54;35.66;97421.47;4977383;28;20058;-65
2022/06/17 08:18:33;;;;;;;6.15;2.30;;;;;;;29.57;34.13;97413.53;4981468;28;20039;-65
2022/06/17 08:20:58;;;;;;;5.53;2.50;;;;;;;27.32;37.41;97417.25;4982466;28;20507;-64
2022/06/17 08:23:24;;;;;;;2.85;1.90;;;;;;;25.78;40.61;97415.06;4986079;28;20042;-64
2022/06/17 08:25:50;;;;;;;4.63;2.60;;;;;;;26.38;39.71;97417.06;4980717;28;20038;-64
2022/06/17 08:28:17;;;;;;;4.25;2.53;;;;;;;27.18;37.63;97416.53;4976556;28;20058;-65
2022/06/17 08:30:46;;;;;;;6.57;2.58;;;;;;;28.43;35.57;97418.28;4981734;28;20543;-65
2022/06/17 08:33:11;;;;;;;2.97;1.98;;;;;;;29.35;34.81;97418.19;4977298;28;20407;-65
2022/06/17 08:35:44;;;;;;;2.83;1.95;;;;;;;28.89;34.82;97418.25;4981316;28;20050;-65
2022/06/17 08:38:17;;;;;;;4.03;2.00;;;;;;;26.91;38.07;97416.38;4977236;28;20050;-65
2022/06/17 08:40:58;;;;;;;4.75;2.65;;;;;;;27.83;39.39;97414.75;4990869;28;20065;-63
2022/06/17 08:43:53;;;;;;;4.50;3.00;;;;;;;28.19;39.61;97412.50;4986835;28;20053;-66
2022/06/17 08:46:33;;;;;;;4.93;2.60;;;;;;;28.85;40.06;97405.59;4974671;28;20076;-63
2022/06/17 08:49:07;;;;;;;;;;;;;;;29.77;36.10;97413.00;4997077;28;20726;-65
2022/06/17 08:52:00;;;;;;;4.30;2.60;;;;;;;30.29;36.11;97422.84;4998085;28;19917;-65
2022/06/17 08:54:31;;;;;;;4.18;2.45;;;;;;;29.14;38.02;97425.59;4958575;28;20499;-64
2022/06/17 08:57:12;;;;;;;11.00;2.90;;;;;;;29.44;36.56;97420.19;4968260;28;20072;-65
2022/06/17 08:59:55;;;;;;;5.28;2.92;;;;;;;28.89;38.97;97429.53;5001140;28;20042;-65
2022/06/17 09:02:50;;;;;;;5.88;2.88;;;;;;;28.55;38.90;97431.44;4979307;28;20046;-65
2022/06/17 09:05:18;;;;;;;4.75;2.88;;;;;;;28.42;39.65;97431.59;4930210;28;20039;-65
2022/06/17 09:07:55;;;;;;;4.97;2.70;;;;;;;28.11;39.24;97426.09;4993196;28;20511;-65
2022/06/17 09:11:06;;;;;;;4.97;2.13;;;;;;;28.70;39.68;97428.81;4977481;28;20121;-64
2022/06/17 09:13:45;;;;;;;5.53;2.70;;;;;;;29.18;40.05;97419.78;4981461;28;20042;-66
2022/06/17 09:16:36;;;;;;;4.45;2.53;;;;;;;28.64;38.85;97427.09;4975422;28;20081;-65
2022/06/17 09:19:03;;;;;;;2.95;2.25;;;;;;;28.74;39.50;97423.78;4981151;28;20431;-65
2022/06/17 09:21:31;;;;;;;5.00;2.42;;;;;;;28.87;38.80;97425.66;4972683;28;20702;-66
2022/06/17 09:24:13;;;;;;;6.88;3.03;;;;;;;28.63;39.71;97423.50;4997499;28;20045;-64
2022/06/17 09:26:52;;;;;;;8.02;3.95;;;;;;;28.14;41.54;97422.34;4980461;28;20034;-64
2022/06/17 09:29:24;;;;;;;5.07;3.03;;;;;;;27.96;42.19;97425.91;4977290;28;20046;-63
2022/06/17 09:31:58;;;;;;;5.18;2.50;;;;;;;28.21;40.89;97424.06;4981395;28;20046;-64
2022/06/17 09:34:46;;;;;;;7.78;2.85;;;;;;;27.88;41.54;97413.34;4976171;28;20294;-64
2022/06/17 09:37:36;;;;;;;6.50;3.17;;;;;;;28.29;41.15;97419.69;4976103;28;20042;-64
2022/06/17 09:40:06;;;;;;;;;;;;;;;28.01;40.57;97411.22;4982732;28;20050;-65
2022/06/17 09:43:04;;;;;;;5.82;3.22;;;;;;;27.43;42.31;97421.19;4985591;28;19940;-64
2022/06/17 09:45:38;;;;;;;4.50;2.40;;;;;;;27.71;42.26;97420.50;4992381;28;20446;-63
2022/06/17 09:48:14;;;;;;;5.80;3.17;;;;;;;28.08;40.76;97404.50;4996560;28;20046;-63
2022/06/17 09:50:52;;;;;;;5.60;2.92;;;;;;;28.02;41.56;97412.00;4981738;28;20039;-64
2022/06/17 09:53:39;;;;;;;7.57;3.33;;;;;;;27.73;43.50;97416.00;4990538;28;20049;-63
2022/06/17 09:56:21;;;;;;;10.50;3.63;;;;;;;27.99;43.38;97408.09;4988593;28;20761;-64
2022/06/17 09:59:00;;;;;;;4.55;2.45;;;;;;;28.18;42.30;97413.72;4981612;28;20053;-64
2022/06/17 10:01:26;;;;;;;;;;;;;;;28.27;42.83;97418.59;4972817;28;20057;-64
2022/06/17 10:03:51;;;;;;;4.95;3.00;;;;;;;27.79;44.14;97416.16;4982046;28;20286;-63
2022/06/17 10:06:23;;;;;;;5.97;2.72;;;;;;;27.80;42.14;97415.69;4974756;28;20288;-63
2022/06/17 10:09:00;;;;;;;8.35;3.78;;;;;;;27.46;43.59;97411.06;4979369;28;20455;-64
2022/06/17 10:12:10;;;;;;;5.63;2.53;;;;;;;27.74;42.11;97414.72;4968702;28;20034;-66
2022/06/17 10:14:59;;;;;;;7.55;3.53;;;;;;;27.57;43.68;97411.41;4983222;28;20488;-63
2022/06/17 10:20:40;;;;;;;7.22;3.50;;;;;;;27.70;43.02;97402.06;4967126;28;20145;-65
2022/06/17 10:23:29;;;;;;;6.78;2.95;;;;;;;27.66;42.22;97405.03;4982502;28;20136;-64
2022/06/17 10:26:22;;;;;;;5.38;2.90;;;;;;;27.55;41.28;97413.09;4979706;28;20141;-65
2022/06/17 10:29:10;;;;;;;5.75;2.85;;;;;;;27.17;42.74;97408.53;4990720;28;20061;-65
2022/06/17 10:31:43;;;;;;;5.38;2.90;;;;;;;27.68;42.36;97405.34;4974510;28;20154;-64
2022/06/17 10:34:41;;;;;;;6.53;3.80;;;;;;;27.83;39.86;97411.94;4978891;28;20053;-66
2022/06/17 10:37:07;;;;;;;6.82;3.58;;;;;;;27.55;40.25;97407.47;4976046;28;20496;-66
2022/06/17 10:39:35;;;;;;;6.60;4.10;;;;;;;27.49;40.94;97403.72;4984857;28;20043;-65
2022/06/17 10:42:01;;;;;;;6.45;3.55;;;;;;;27.31;41.41;97407.25;4984654;28;20046;-65
2022/06/17 10:44:29;;;;;;;7.05;3.72;;;;;;;27.14;41.69;97407.44;4979636;28;20570;-66
2022/06/17 10:47:11;;;;;;;13.45;5.78;;;;;;;27.25;40.40;97396.56;4983617;28;20038;-65
2022/06/17 10:49:46;;;;;;;7.57;4.45;;;;;;;27.11;40.95;97385.88;4977618;28;20523;-64
2022/06/17 10:52:32;;;;;;;11.50;4.72;;;;;;;26.96;40.60;97391.25;4978325;28;20149;-64
2022/06/17 10:55:01;;;;;;;5.70;3.70;;;;;;;26.89;41.70;97385.91;4989419;28;20034;-66
2022/06/17 10:57:30;;;;;;;8.90;3.00;;;;;;;27.09;42.33;97393.97;4985002;28;20046;-65
2022/06/17 10:59:55;;;;;;;7.57;3.42;;;;;;;27.11;41.40;97388.69;4986482;28;20039;-65
2022/06/17 11:02:21;;;;;;;7.68;3.58;;;;;;;27.20;40.43;97399.19;4980452;28;20522;-65
2022/06/17 11:04:54;;;;;;;15.52;3.60;;;;;;;27.52;42.01;97394.34;4988703;28;20118;-65
2022/06/17 11:07:28;;;;;;;6.95;3.10;;;;;;;27.35;40.83;97397.44;4986027;28;20064;-65
2022/06/17 11:10:20;;;;;;;10.20;3.30;;;;;;;27.47;39.38;97395.72;5002341;28;20487;-66
2022/06/17 11:13:04;;;;;;;7.47;3.15;;;;;;;27.24;40.11;97392.19;4987486;28;20076;-65
2022/06/17 11:15:34;;;;;;;4.82;2.90;;;;;;;27.40;39.11;97391.16;4975070;28;20074;-66
2022/06/17 11:18:06;;;;;;;7.03;3.60;;;;;;;27.77;39.10;97388.47;4983764;28;20527;-65
2022/06/17 11:20:35;;;;;;;6.97;3.33;;;;;;;27.55;39.01;97385.78;4987368;28;20200;-65
2022/06/17 11:23:15;;;;;;;5.80;4.37;;;;;;;27.58;40.21;97386.84;5001000;28;20139;-64
2022/06/17 11:25:42;;;;;;;9.63;3.30;;;;;;;27.61;38.66;97388.75;4981893;28;20050;-64
2022/06/17 11:28:24;;;;;;;7.35;3.13;;;;;;;27.38;39.74;97393.66;4977859;28;20073;-64
2022/06/17 11:31:03;;;;;;;4.72;2.83;;;;;;;27.48;39.15;97385.25;4983755;28;20515;-64
2022/06/17 11:33:41;;;;;;;5.27;3.03;;;;;;;27.18;39.50;97377.16;4982604;28;20042;-63
2022/06/17 11:36:16;;;;;;;8.02;4.30;;;;;;;27.55;39.65;97373.72;4977770;28;20091;-62
2022/06/17 11:38:42;;;;;;;5.18;2.63;;;;;;;27.84;39.93;97371.28;4983860;28;20038;-65
2022/06/17 11:41:09;;;;;;;4.35;2.80;;;;;;;27.78;39.90;97372.38;4985591;28;20042;-63
2022/06/17 11:43:41;;;;;;;6.15;3.03;;;;;;;27.70;39.18;97371.13;4993119;28;20116;-65
2022/06/17 11:46:33;;;;;;;7.00;2.75;;;;;;;27.92;37.70;97366.16;4982543;28;20074;-64
2022/06/17 11:49:07;;;;;;;4.60;2.85;;;;;;;27.75;39.20;97356.41;4998268;28;20053;-65
2022/06/17 11:51:36;;;;;;;9.25;3.00;;;;;;;27.89;39.82;97346.56;4981879;28;20523;-65
2022/06/17 11:54:09;;;;;;;6.40;2.72;;;;;;;27.61;37.80;97347.31;4981250;28;20034;-64
2022/06/17 11:56:42;;;;;;;6.03;2.40;;;;;;;27.08;39.53;97344.63;4980826;28;20745;-65
2022/06/17 11:59:17;;;;;;;3.55;2.53;;;;;;;27.33;39.15;97354.13;4983774;28;20203;-65
2022/06/17 12:01:54;;;;;;;4.13;2.20;;;;;;;27.58;38.60;97345.44;4992187;28;20077;-65
2022/06/17 12:04:40;;;;;;;3.85;2.28;;;;;;;27.55;37.35;97352.00;4980477;28;20475;-65
2022/06/17 12:07:23;;;;;;;8.32;2.55;;;;;;;27.68;37.49;97345.44;4977243;28;20046;-66